sensor_id;sensor_type;location;lat;lon;timestamp;pressure;altitude;pressure_sealevel;temperature;humidity
51289;BME280;37372;52.294;5.152;2023-02-12T00:02:24;103810.44;;;6.85;78.34
51289;BME280;37372;52.294;5.152;2023-02-12T00:04:49;103804.09;;;6.85;78.45
51289;BME280;37372;52.294;5.152;2023-02-12T00:07:14;103807.94;;;6.82;78.51
51289;BME280;37372;52.294;5.152;2023-02-12T00:09:40;103808.09;;;6.81;78.58
51289;BME280;37372;52.294;5.152;2023-02-12T00:12:05;103809.56;;;6.85;78.74
51289;BME280;37372;52.294;5.152;2023-02-12T00:14:31;103807.94;;;6.82;78.45
51289;BME280;37372;52.294;5.152;2023-02-12T00:16:57;103805.50;;;6.79;78.94
51289;BME280;37372;52.294;5.152;2023-02-12T00:19:22;103808.38;;;6.77;78.85
51289;BME280;37372;52.294;5.152;2023-02-12T00:21:48;103800.91;;;6.79;79.27
51289;BME280;37372;52.294;5.152;2023-02-12T00:24:13;103807.75;;;6.74;78.84
51289;BME280;37372;52.294;5.152;2023-02-12T00:26:39;103802.97;;;6.66;79.01
51289;BME280;37372;52.294;5.152;2023-02-12T00:29:04;103800.25;;;6.66;79.23
51289;BME280;37372;52.294;5.152;2023-02-12T00:31:30;103798.44;;;6.56;79.32
51289;BME280;37372;52.294;5.152;2023-02-12T00:33:57;103802.69;;;6.48;79.70
51289;BME280;37372;52.294;5.152;2023-02-12T00:36:25;103804.81;;;6.45;79.97
51289;BME280;37372;52.294;5.152;2023-02-12T00:38:52;103804.81;;;6.45;79.90
51289;BME280;37372;52.294;5.152;2023-02-12T00:41:17;103797.88;;;6.41;80.03
51289;BME280;37372;52.294;5.152;2023-02-12T00:43:43;103809.19;;;6.36;79.94
51289;BME280;37372;52.294;5.152;2023-02-12T00:46:08;103801.41;;;6.32;80.44
51289;BME280;37372;52.294;5.152;2023-02-12T00:48:34;103800.94;;;6.27;80.74
51289;BME280;37372;52.294;5.152;2023-02-12T00:51:00;103793.00;;;6.23;80.48
51289;BME280;37372;52.294;5.152;2023-02-12T00:53:25;103787.81;;;6.20;80.65
51289;BME280;37372;52.294;5.152;2023-02-12T00:55:51;103792.78;;;6.15;80.82
51289;BME280;37372;52.294;5.152;2023-02-12T00:58:16;103788.34;;;6.14;80.64
51289;BME280;37372;52.294;5.152;2023-02-12T01:00:42;103794.03;;;6.11;80.80
51289;BME280;37372;52.294;5.152;2023-02-12T01:03:08;103793.56;;;6.06;81.01
51289;BME280;37372;52.294;5.152;2023-02-12T01:05:33;103797.81;;;5.99;81.06
51289;BME280;37372;52.294;5.152;2023-02-12T01:07:58;103801.50;;;5.98;81.49
51289;BME280;37372;52.294;5.152;2023-02-12T01:10:24;103800.91;;;5.94;81.59
51289;BME280;37372;52.294;5.152;2023-02-12T01:12:49;103803.09;;;5.89;81.50
51289;BME280;37372;52.294;5.152;2023-02-12T01:15:16;103804.34;;;5.85;81.50
51289;BME280;37372;52.294;5.152;2023-02-12T01:17:42;103801.63;;;5.85;82.14
51289;BME280;37372;52.294;5.152;2023-02-12T01:20:11;103795.69;;;5.91;82.20
51289;BME280;37372;52.294;5.152;2023-02-12T01:22:37;103803.88;;;5.91;81.96
51289;BME280;37372;52.294;5.152;2023-02-12T01:25:04;103800.16;;;5.92;81.78
51289;BME280;37372;52.294;5.152;2023-02-12T01:27:30;103805.22;;;5.97;81.93
51289;BME280;37372;52.294;5.152;2023-02-12T01:29:55;103799.41;;;6.02;82.00
51289;BME280;37372;52.294;5.152;2023-02-12T01:32:21;103802.84;;;6.04;81.79
51289;BME280;37372;52.294;5.152;2023-02-12T01:34:46;103806.44;;;6.04;81.72
51289;BME280;37372;52.294;5.152;2023-02-12T01:37:12;103805.44;;;6.05;81.53
51289;BME280;37372;52.294;5.152;2023-02-12T01:39:37;103807.94;;;6.08;81.60
51289;BME280;37372;52.294;5.152;2023-02-12T01:42:03;103817.09;;;6.07;81.30
51289;BME280;37372;52.294;5.152;2023-02-12T01:44:31;103810.88;;;6.05;81.32
51289;BME280;37372;52.294;5.152;2023-02-12T01:47:05;103817.34;;;6.04;81.04
51289;BME280;37372;52.294;5.152;2023-02-12T01:49:35;103809.44;;;6.01;80.92
51289;BME280;37372;52.294;5.152;2023-02-12T01:52:17;103809.66;;;5.98;81.33
51289;BME280;37372;52.294;5.152;2023-02-12T01:54:45;103814.16;;;5.99;81.29
51289;BME280;37372;52.294;5.152;2023-02-12T01:57:11;103806.72;;;6.01;81.36
51289;BME280;37372;52.294;5.152;2023-02-12T01:59:40;103809.44;;;6.01;81.48
51289;BME280;37372;52.294;5.152;2023-02-12T02:02:07;103809.94;;;5.95;80.91
51289;BME280;37372;52.294;5.152;2023-02-12T02:04:39;103808.69;;;5.88;81.25
51289;BME280;37372;52.294;5.152;2023-02-12T02:07:07;103809.94;;;5.84;81.28
51289;BME280;37372;52.294;5.152;2023-02-12T02:09:35;103812.16;;;5.90;81.54
51289;BME280;37372;52.294;5.152;2023-02-12T02:12:02;103808.34;;;5.81;81.54
51289;BME280;37372;52.294;5.152;2023-02-12T02:14:47;103810.69;;;5.75;81.19
51289;BME280;37372;52.294;5.152;2023-02-12T02:29:04;103806.53;;;5.48;81.84
51289;BME280;37372;52.294;5.152;2023-02-12T02:31:57;103805.75;;;5.46;81.88
51289;BME280;37372;52.294;5.152;2023-02-12T02:34:38;103805.38;;;5.39;81.81
51289;BME280;37372;52.294;5.152;2023-02-12T02:37:19;103805.03;;;5.33;81.85
51289;BME280;37372;52.294;5.152;2023-02-12T02:39:52;103804.28;;;5.31;81.76
51289;BME280;37372;52.294;5.152;2023-02-12T02:42:26;103798.09;;;5.29;81.98
51289;BME280;37372;52.294;5.152;2023-02-12T02:44:58;103793.88;;;5.25;81.97
51289;BME280;37372;52.294;5.152;2023-02-12T02:47:38;103795.63;;;5.26;82.13
51289;BME280;37372;52.294;5.152;2023-02-12T02:50:09;103795.13;;;5.21;81.88
51289;BME280;37372;52.294;5.152;2023-02-12T02:52:39;103785.50;;;5.16;82.03
51289;BME280;37372;52.294;5.152;2023-02-12T02:55:10;103790.94;;;5.16;81.77
51289;BME280;37372;52.294;5.152;2023-02-12T02:57:56;103790.28;;;5.13;81.91
51289;BME280;37372;52.294;5.152;2023-02-12T03:00:30;103794.00;;;5.12;82.09
51289;BME280;37372;52.294;5.152;2023-02-12T03:03:01;103797.59;;;5.12;82.28
51289;BME280;37372;52.294;5.152;2023-02-12T03:05:36;103792.78;;;5.16;82.15
51289;BME280;37372;52.294;5.152;2023-02-12T03:08:18;103794.16;;;5.22;82.24
51289;BME280;37372;52.294;5.152;2023-02-12T03:10:48;103790.19;;;5.26;81.89
51289;BME280;37372;52.294;5.152;2023-02-12T03:13:22;103783.00;;;5.25;81.78
51289;BME280;37372;52.294;5.152;2023-02-12T03:16:13;103778.56;;;5.24;81.79
51289;BME280;37372;52.294;5.152;2023-02-12T03:18:51;103778.78;;;5.32;82.43
51289;BME280;37372;52.294;5.152;2023-02-12T03:21:24;103778.28;;;5.38;82.32
51289;BME280;37372;52.294;5.152;2023-02-12T03:24:06;103787.09;;;5.41;81.97
51289;BME280;37372;52.294;5.152;2023-02-12T03:26:42;103780.78;;;5.41;82.16
51289;BME280;37372;52.294;5.152;2023-02-12T03:29:09;103779.78;;;5.42;82.07
51289;BME280;37372;52.294;5.152;2023-02-12T03:34:21;103776.31;;;5.40;81.67
51289;BME280;37372;52.294;5.152;2023-02-12T03:37:00;103784.88;;;5.35;81.91
51289;BME280;37372;52.294;5.152;2023-02-12T03:42:47;103785.84;;;5.34;81.81
51289;BME280;37372;52.294;5.152;2023-02-12T03:45:48;103785.38;;;5.29;81.88
51289;BME280;37372;52.294;5.152;2023-02-12T03:48:28;103792.66;;;5.29;82.06
51289;BME280;37372;52.294;5.152;2023-02-12T03:50:59;103797.59;;;5.24;81.95
51289;BME280;37372;52.294;5.152;2023-02-12T03:53:28;103793.75;;;5.26;82.27
51289;BME280;37372;52.294;5.152;2023-02-12T03:56:00;103797.97;;;5.30;82.46
51289;BME280;37372;52.294;5.152;2023-02-12T03:58:28;103801.06;;;5.37;81.92
51289;BME280;37372;52.294;5.152;2023-02-12T04:00:56;103796.22;;;5.40;81.88
51289;BME280;37372;52.294;5.152;2023-02-12T04:03:23;103792.19;;;5.35;81.25
51289;BME280;37372;52.294;5.152;2023-02-12T04:05:49;103800.22;;;5.36;81.63
51289;BME280;37372;52.294;5.152;2023-02-12T04:08:14;103802.78;;;5.38;81.70
51289;BME280;37372;52.294;5.152;2023-02-12T04:11:12;103797.47;;;5.36;81.62
51289;BME280;37372;52.294;5.152;2023-02-12T04:14:00;103802.56;;;5.41;81.86
51289;BME280;37372;52.294;5.152;2023-02-12T04:16:36;103803.28;;;5.43;81.78
51289;BME280;37372;52.294;5.152;2023-02-12T04:19:04;103807.63;;;5.46;81.89
51289;BME280;37372;52.294;5.152;2023-02-12T04:27:03;103822.94;;;5.47;81.78
51289;BME280;37372;52.294;5.152;2023-02-12T04:29:38;103824.94;;;5.44;81.90
51289;BME280;37372;52.294;5.152;2023-02-12T04:32:21;103828.78;;;5.42;82.05
51289;BME280;37372;52.294;5.152;2023-02-12T04:35:06;103827.66;;;5.44;82.29
51289;BME280;37372;52.294;5.152;2023-02-12T04:37:46;103820.38;;;5.45;82.11
51289;BME280;37372;52.294;5.152;2023-02-12T04:40:14;103826.69;;;5.46;81.92
51289;BME280;37372;52.294;5.152;2023-02-12T04:42:46;103825.81;;;5.45;82.02
51289;BME280;37372;52.294;5.152;2023-02-12T04:45:33;103832.00;;;5.47;82.22
51289;BME280;37372;52.294;5.152;2023-02-12T04:47:59;103831.13;;;5.47;82.08
51289;BME280;37372;52.294;5.152;2023-02-12T04:50:26;103832.00;;;5.47;82.12
51289;BME280;37372;52.294;5.152;2023-02-12T04:52:56;103834.47;;;5.50;82.52
51289;BME280;37372;52.294;5.152;2023-02-12T04:55:22;103836.94;;;5.53;82.26
51289;BME280;37372;52.294;5.152;2023-02-12T04:57:47;103838.78;;;5.53;82.26
51289;BME280;37372;52.294;5.152;2023-02-12T05:00:13;103842.16;;;5.56;82.16
51289;BME280;37372;52.294;5.152;2023-02-12T05:02:39;103837.31;;;5.60;81.94
51289;BME280;37372;52.294;5.152;2023-02-12T05:05:05;103839.78;;;5.63;81.77
51289;BME280;37372;52.294;5.152;2023-02-12T05:07:30;103834.47;;;5.61;82.25
51289;BME280;37372;52.294;5.152;2023-02-12T05:09:56;103832.75;;;5.60;81.76
51289;BME280;37372;52.294;5.152;2023-02-12T05:12:21;103830.91;;;5.61;81.81
51289;BME280;37372;52.294;5.152;2023-02-12T05:14:46;103832.50;;;5.63;82.04
51289;BME280;37372;52.294;5.152;2023-02-12T05:17:12;103837.31;;;5.60;81.85
51289;BME280;37372;52.294;5.152;2023-02-12T05:19:37;103831.63;;;5.63;82.32
51289;BME280;37372;52.294;5.152;2023-02-12T05:22:03;103840.66;;;5.63;82.08
51289;BME280;37372;52.294;5.152;2023-02-12T05:24:28;103831.50;;;5.64;82.04
51289;BME280;37372;52.294;5.152;2023-02-12T05:26:54;103835.84;;;5.67;82.44
51289;BME280;37372;52.294;5.152;2023-02-12T05:29:19;103835.72;;;5.68;82.21
51289;BME280;37372;52.294;5.152;2023-02-12T05:31:45;103837.31;;;5.71;82.07
51289;BME280;37372;52.294;5.152;2023-02-12T05:34:11;103833.97;;;5.67;82.04
51289;BME280;37372;52.294;5.152;2023-02-12T05:36:37;103833.00;;;5.68;82.19
51289;BME280;37372;52.294;5.152;2023-02-12T05:39:03;103841.75;;;5.72;82.22
51289;BME280;37372;52.294;5.152;2023-02-12T05:41:29;103832.72;;;5.71;82.51
51289;BME280;37372;52.294;5.152;2023-02-12T05:43:59;103840.91;;;5.71;82.32
51289;BME280;37372;52.294;5.152;2023-02-12T05:46:24;103841.75;;;5.72;82.13
51289;BME280;37372;52.294;5.152;2023-02-12T05:48:50;103842.75;;;5.71;82.17
51289;BME280;37372;52.294;5.152;2023-02-12T05:51:17;103843.50;;;5.73;82.49
51289;BME280;37372;52.294;5.152;2023-02-12T05:53:44;103838.81;;;5.75;82.28
51289;BME280;37372;52.294;5.152;2023-02-12T05:56:21;103841.25;;;5.78;82.13
51289;BME280;37372;52.294;5.152;2023-02-12T05:58:51;103841.16;;;5.80;82.27
51289;BME280;37372;52.294;5.152;2023-02-12T06:01:23;103843.00;;;5.79;82.14
51289;BME280;37372;52.294;5.152;2023-02-12T06:03:49;103834.81;;;5.79;82.06
51289;BME280;37372;52.294;5.152;2023-02-12T06:06:14;103843.13;;;5.78;82.26
51289;BME280;37372;52.294;5.152;2023-02-12T06:08:40;103841.88;;;5.82;82.04
51289;BME280;37372;52.294;5.152;2023-02-12T06:11:10;103844.84;;;5.79;81.93
51289;BME280;37372;52.294;5.152;2023-02-12T06:13:37;103842.75;;;5.82;82.07
51289;BME280;37372;52.294;5.152;2023-02-12T06:16:03;103841.63;;;5.85;82.02
51289;BME280;37372;52.294;5.152;2023-02-12T06:18:29;103845.59;;;5.81;81.88
51289;BME280;37372;52.294;5.152;2023-02-12T06:20:55;103843.88;;;5.80;82.12
51289;BME280;37372;52.294;5.152;2023-02-12T06:23:22;103844.84;;;5.79;81.99
51289;BME280;37372;52.294;5.152;2023-02-12T06:25:48;103844.13;;;5.77;82.38
51289;BME280;37372;52.294;5.152;2023-02-12T06:28:14;103844.84;;;5.79;82.55
51289;BME280;37372;52.294;5.152;2023-02-12T06:30:39;103843.00;;;5.79;82.14
51289;BME280;37372;52.294;5.152;2023-02-12T06:33:05;103834.09;;;5.77;81.95
51289;BME280;37372;52.294;5.152;2023-02-12T06:35:30;103843.88;;;5.80;82.22
51289;BME280;37372;52.294;5.152;2023-02-12T06:37:55;103843.00;;;5.79;82.04
51289;BME280;37372;52.294;5.152;2023-02-12T06:40:21;103849.19;;;5.81;82.09
51289;BME280;37372;52.294;5.152;2023-02-12T06:42:46;103842.38;;;5.87;82.02
51289;BME280;37372;52.294;5.152;2023-02-12T06:45:12;103854.25;;;5.86;81.77
51289;BME280;37372;52.294;5.152;2023-02-12T06:47:37;103847.06;;;5.85;81.80
51289;BME280;37372;52.294;5.152;2023-02-12T06:50:03;103847.06;;;5.85;81.84
51289;BME280;37372;52.294;5.152;2023-02-12T06:52:28;103852.50;;;5.85;81.92
51289;BME280;37372;52.294;5.152;2023-02-12T06:54:54;103852.28;;;5.88;81.88
51289;BME280;37372;52.294;5.152;2023-02-12T06:57:20;103858.34;;;5.91;81.88
51289;BME280;37372;52.294;5.152;2023-02-12T06:59:45;103856.25;;;5.95;81.81
51289;BME280;37372;52.294;5.152;2023-02-12T07:02:11;103864.06;;;6.00;81.72
51289;BME280;37372;52.294;5.152;2023-02-12T07:04:39;103859.47;;;6.00;81.37
51289;BME280;37372;52.294;5.152;2023-02-12T07:07:04;103863.56;;;6.06;81.47
51289;BME280;37372;52.294;5.152;2023-02-12T07:09:30;103860.94;;;6.04;80.67
51289;BME280;37372;52.294;5.152;2023-02-12T07:11:59;103859.22;;;6.03;81.07
51289;BME280;37372;52.294;5.152;2023-02-12T07:14:24;103861.81;;;6.05;81.17
51289;BME280;37372;52.294;5.152;2023-02-12T07:16:52;103865.66;;;6.02;81.09
51289;BME280;37372;52.294;5.152;2023-02-12T07:19:18;103862.66;;;6.05;81.29
51289;BME280;37372;52.294;5.152;2023-02-12T07:21:43;103870.75;;;6.07;80.97
51289;BME280;37372;52.294;5.152;2023-02-12T07:24:10;103874.91;;;6.11;81.09
51289;BME280;37372;52.294;5.152;2023-02-12T07:26:39;103868.09;;;6.16;80.82
51289;BME280;37372;52.294;5.152;2023-02-12T07:29:05;103886.19;;;6.17;80.38
51289;BME280;37372;52.294;5.152;2023-02-12T07:31:30;103890.53;;;6.20;80.20
51289;BME280;37372;52.294;5.152;2023-02-12T07:33:57;103881.50;;;6.19;80.25
51289;BME280;37372;52.294;5.152;2023-02-12T07:36:24;103893.13;;;6.21;79.90
51289;BME280;37372;52.294;5.152;2023-02-12T07:38:50;103885.56;;;6.25;79.86
51289;BME280;37372;52.294;5.152;2023-02-12T07:41:21;103889.88;;;6.28;80.15
51289;BME280;37372;52.294;5.152;2023-02-12T07:43:48;103894.47;;;6.27;80.01
51289;BME280;37372;52.294;5.152;2023-02-12T07:46:21;103890.63;;;6.30;80.01
51289;BME280;37372;52.294;5.152;2023-02-12T07:48:47;103894.22;;;6.30;80.03
51289;BME280;37372;52.294;5.152;2023-02-12T07:51:14;103911.94;;;6.36;80.49
51289;BME280;37372;52.294;5.152;2023-02-12T07:53:40;103902.75;;;6.37;79.76
51289;BME280;37372;52.294;5.152;2023-02-12T07:56:08;103906.22;;;6.39;79.55
51289;BME280;37372;52.294;5.152;2023-02-12T07:58:34;103904.38;;;6.39;79.68
51289;BME280;37372;52.294;5.152;2023-02-12T08:01:00;103906.31;;;6.48;79.60
51289;BME280;37372;52.294;5.152;2023-02-12T08:03:27;103903.59;;;6.48;79.28
51289;BME280;37372;52.294;5.152;2023-02-12T08:05:53;103909.38;;;6.55;78.85
51289;BME280;37372;52.294;5.152;2023-02-12T08:08:18;103904.75;;;6.67;78.77
51289;BME280;37372;52.294;5.152;2023-02-12T08:10:43;103905.63;;;6.67;78.65
51289;BME280;37372;52.294;5.152;2023-02-12T08:13:09;103901.91;;;6.68;78.21
51289;BME280;37372;52.294;5.152;2023-02-12T08:15:34;103904.25;;;6.73;78.72
51289;BME280;37372;52.294;5.152;2023-02-12T08:17:59;103913.16;;;6.75;78.27
51289;BME280;37372;52.294;5.152;2023-02-12T08:20:26;103917.16;;;6.71;78.35
51289;BME280;37372;52.294;5.152;2023-02-12T08:22:51;103920.75;;;6.71;77.69
51289;BME280;37372;52.294;5.152;2023-02-12T08:25:16;103917.50;;;6.77;77.29
51289;BME280;37372;52.294;5.152;2023-02-12T08:27:42;103910.53;;;6.85;77.65
51289;BME280;37372;52.294;5.152;2023-02-12T08:30:08;103911.53;;;6.84;77.11
51289;BME280;37372;52.294;5.152;2023-02-12T08:32:33;103914.47;;;6.92;77.00
51289;BME280;37372;52.294;5.152;2023-02-12T08:34:59;103923.84;;;6.99;77.49
51289;BME280;37372;52.294;5.152;2023-02-12T08:37:24;103925.44;;;7.01;76.82
51289;BME280;37372;52.294;5.152;2023-02-12T08:39:49;103924.91;;;7.07;76.56
51289;BME280;37372;52.294;5.152;2023-02-12T08:42:14;103929.84;;;7.14;76.47
51289;BME280;37372;52.294;5.152;2023-02-12T08:44:41;103930.31;;;7.19;76.50
51289;BME280;37372;52.294;5.152;2023-02-12T08:47:07;103939.50;;;7.18;75.55
51289;BME280;37372;52.294;5.152;2023-02-12T08:49:34;103937.94;;;7.15;75.54
51289;BME280;37372;52.294;5.152;2023-02-12T08:51:59;103944.84;;;7.19;75.95
51289;BME280;37372;52.294;5.152;2023-02-12T08:54:28;103936.41;;;7.22;75.55
51289;BME280;37372;52.294;5.152;2023-02-12T08:56:59;103933.13;;;7.28;75.87
51289;BME280;37372;52.294;5.152;2023-02-12T08:59:25;103940.19;;;7.31;76.02
51289;BME280;37372;52.294;5.152;2023-02-12T09:01:51;103938.78;;;7.37;76.18
51289;BME280;37372;52.294;5.152;2023-02-12T09:04:19;103940.66;;;7.36;76.01
51289;BME280;37372;52.294;5.152;2023-02-12T09:06:45;103937.63;;;7.39;76.08
51289;BME280;37372;52.294;5.152;2023-02-12T09:09:11;103948.22;;;7.32;75.19
51289;BME280;37372;52.294;5.152;2023-02-12T09:11:36;103945.09;;;7.37;75.78
51289;BME280;37372;52.294;5.152;2023-02-12T09:14:06;103943.84;;;7.41;75.46
51289;BME280;37372;52.294;5.152;2023-02-12T09:16:35;103954.34;;;7.46;75.84
51289;BME280;37372;52.294;5.152;2023-02-12T09:19:01;103942.72;;;7.44;75.34
51289;BME280;37372;52.294;5.152;2023-02-12T09:21:27;103947.16;;;7.45;75.20
51289;BME280;37372;52.294;5.152;2023-02-12T09:23:52;103958.56;;;7.50;74.94
51289;BME280;37372;52.294;5.152;2023-02-12T09:26:20;103954.09;;;7.49;74.29
51289;BME280;37372;52.294;5.152;2023-02-12T09:28:47;103958.56;;;7.50;74.39
51289;BME280;37372;52.294;5.152;2023-02-12T09:31:16;103957.94;;;7.46;73.45
51289;BME280;37372;52.294;5.152;2023-02-12T09:33:44;103951.63;;;7.46;73.74
51289;BME280;37372;52.294;5.152;2023-02-12T09:36:13;103955.97;;;7.48;74.39
51289;BME280;37372;52.294;5.152;2023-02-12T09:38:38;103952.81;;;7.53;74.54
51289;BME280;37372;52.294;5.152;2023-02-12T09:44:01;103945.56;;;7.63;74.41
51289;BME280;37372;52.294;5.152;2023-02-12T09:52:04;103947.75;;;7.69;73.51
51289;BME280;37372;52.294;5.152;2023-02-12T09:54:38;103951.94;;;7.73;73.92
51289;BME280;37372;52.294;5.152;2023-02-12T09:57:14;103949.22;;;7.73;73.23
51289;BME280;37372;52.294;5.152;2023-02-12T09:59:50;103944.19;;;7.78;73.45
51289;BME280;37372;52.294;5.152;2023-02-12T10:02:18;103945.66;;;7.82;73.70
51289;BME280;37372;52.294;5.152;2023-02-12T10:04:46;103950.13;;;7.83;73.73
51289;BME280;37372;52.294;5.152;2023-02-12T10:07:34;103953.16;;;7.90;73.39
51289;BME280;37372;52.294;5.152;2023-02-12T10:12:57;103945.44;;;7.95;73.16
51289;BME280;37372;52.294;5.152;2023-02-12T10:18:17;103946.75;;;8.01;72.83
51289;BME280;37372;52.294;5.152;2023-02-12T10:24:05;103939.88;;;8.06;71.69
51289;BME280;37372;52.294;5.152;2023-02-12T10:26:46;103948.19;;;8.05;71.29
51289;BME280;37372;52.294;5.152;2023-02-12T10:31:42;103951.25;;;8.11;71.22
51289;BME280;37372;52.294;5.152;2023-02-12T10:34:20;103950.50;;;8.09;70.62
51289;BME280;37372;52.294;5.152;2023-02-12T10:36:48;103953.84;;;8.13;71.17
51289;BME280;37372;52.294;5.152;2023-02-12T10:39:26;103955.56;;;8.14;70.55
51289;BME280;37372;52.294;5.152;2023-02-12T10:41:59;103959.03;;;8.16;70.64
51289;BME280;37372;52.294;5.152;2023-02-12T10:44:26;103951.84;;;8.15;70.70
51289;BME280;37372;52.294;5.152;2023-02-12T10:46:52;103956.84;;;8.10;70.01
51289;BME280;37372;52.294;5.152;2023-02-12T10:49:19;103960.19;;;8.13;70.60
51289;BME280;37372;52.294;5.152;2023-02-12T10:54:45;103955.03;;;8.20;70.20
51289;BME280;37372;52.294;5.152;2023-02-12T10:59:47;103954.47;;;8.26;70.05
51289;BME280;37372;52.294;5.152;2023-02-12T11:02:19;103954.47;;;8.26;70.16
51289;BME280;37372;52.294;5.152;2023-02-12T11:04:45;103951.19;;;8.32;69.66
51289;BME280;37372;52.294;5.152;2023-02-12T11:07:10;103953.66;;;8.35;69.93
51289;BME280;37372;52.294;5.152;2023-02-12T11:09:41;103952.63;;;8.36;69.95
51289;BME280;37372;52.294;5.152;2023-02-12T11:12:42;103955.38;;;8.36;68.50
51289;BME280;37372;52.294;5.152;2023-02-12T11:15:17;103951.31;;;8.31;68.09
51289;BME280;37372;52.294;5.152;2023-02-12T11:18:04;103947.91;;;8.38;68.86
51289;BME280;37372;52.294;5.152;2023-02-12T11:22:58;103942.59;;;8.47;69.09
51289;BME280;37372;52.294;5.152;2023-02-12T11:25:29;103944.06;;;8.51;68.20
51289;BME280;37372;52.294;5.152;2023-02-12T11:30:27;103940.91;;;8.65;67.92
51289;BME280;37372;52.294;5.152;2023-02-12T11:32:53;103936.56;;;8.62;67.37
51289;BME280;37372;52.294;5.152;2023-02-12T11:35:23;103939.75;;;8.67;68.17
51289;BME280;37372;52.294;5.152;2023-02-12T11:37:55;103939.47;;;8.71;68.07
51289;BME280;37372;52.294;5.152;2023-02-12T11:40:24;103930.97;;;8.74;67.73
51289;BME280;37372;52.294;5.152;2023-02-12T11:42:53;103929.84;;;8.76;67.38
51289;BME280;37372;52.294;5.152;2023-02-12T11:45:21;103921.31;;;8.79;66.79
51289;BME280;37372;52.294;5.152;2023-02-12T11:47:50;103923.78;;;8.82;66.33
51289;BME280;37372;52.294;5.152;2023-02-12T11:50:32;103931.09;;;8.82;66.28
51289;BME280;37372;52.294;5.152;2023-02-12T11:53:03;103928.81;;;8.87;66.25
51289;BME280;37372;52.294;5.152;2023-02-12T11:55:39;103929.41;;;8.90;66.43
51289;BME280;37372;52.294;5.152;2023-02-12T11:58:17;103927.81;;;8.98;66.31
51289;BME280;37372;52.294;5.152;2023-02-12T12:00:49;103930.13;;;9.02;66.17
51289;BME280;37372;52.294;5.152;2023-02-12T12:03:24;103922.19;;;9.09;65.83
51289;BME280;37372;52.294;5.152;2023-02-12T12:05:53;103920.75;;;9.05;64.12
51289;BME280;37372;52.294;5.152;2023-02-12T12:08:28;103917.56;;;9.09;64.38
51289;BME280;37372;52.294;5.152;2023-02-12T12:11:03;103919.44;;;9.09;65.64
51289;BME280;37372;52.294;5.152;2023-02-12T12:13:38;103922.47;;;9.15;64.59
51289;BME280;37372;52.294;5.152;2023-02-12T12:16:30;103921.75;;;9.04;64.79
51289;BME280;37372;52.294;5.152;2023-02-12T12:19:27;103919.16;;;8.92;64.95
51289;BME280;37372;52.294;5.152;2023-02-12T12:22:38;103914.69;;;8.91;64.81
51289;BME280;37372;52.294;5.152;2023-02-12T12:28:36;103907.34;;;8.92;63.86
51289;BME280;37372;52.294;5.152;2023-02-12T12:31:13;103907.66;;;8.89;63.94
51289;BME280;37372;52.294;5.152;2023-02-12T12:34:08;103906.34;;;8.83;64.53
51289;BME280;37372;52.294;5.152;2023-02-12T12:56:50;103899.84;;;8.94;64.72
51289;BME280;37372;52.294;5.152;2023-02-12T13:02:42;103899.41;;;8.99;64.11
51289;BME280;37372;52.294;5.152;2023-02-12T13:05:48;103885.72;;;8.99;64.70
51289;BME280;37372;52.294;5.152;2023-02-12T13:14:46;103876.63;;;9.08;63.82
51289;BME280;37372;52.294;5.152;2023-02-12T13:17:38;103881.41;;;8.86;65.52
51289;BME280;37372;52.294;5.152;2023-02-12T13:20:56;103882.13;;;8.88;65.17
51289;BME280;37372;52.294;5.152;2023-02-12T13:28:46;103874.50;;;8.82;65.24
51289;BME280;37372;52.294;5.152;2023-02-12T13:31:17;103867.84;;;8.94;63.56
51289;BME280;37372;52.294;5.152;2023-02-12T13:33:51;103868.03;;;8.83;64.90
51289;BME280;37372;52.294;5.152;2023-02-12T13:36:17;103869.63;;;8.76;65.44
51289;BME280;37372;52.294;5.152;2023-02-12T13:38:51;103861.69;;;8.73;65.71
51289;BME280;37372;52.294;5.152;2023-02-12T13:41:20;103866.88;;;8.76;65.37
51289;BME280;37372;52.294;5.152;2023-02-12T13:43:54;103857.19;;;8.91;65.92
51289;BME280;37372;52.294;5.152;2023-02-12T13:49:08;103855.44;;;9.00;64.73
51289;BME280;37372;52.294;5.152;2023-02-12T13:56:46;103846.38;;;9.00;64.47
51289;BME280;37372;52.294;5.152;2023-02-12T14:01:57;103846.41;;;8.90;64.53
51289;BME280;37372;52.294;5.152;2023-02-12T14:04:32;103839.06;;;8.90;63.58
51289;BME280;37372;52.294;5.152;2023-02-12T14:07:08;103839.91;;;8.81;64.29
51289;BME280;37372;52.294;5.152;2023-02-12T14:12:09;103845.38;;;8.91;64.45
51289;BME280;37372;52.294;5.152;2023-02-12T14:14:42;103836.75;;;8.95;64.07
51289;BME280;37372;52.294;5.152;2023-02-12T14:20:21;103835.28;;;8.82;64.06
51289;BME280;37372;52.294;5.152;2023-02-12T14:27:51;103834.75;;;8.59;64.85
51289;BME280;37372;52.294;5.152;2023-02-12T14:30:28;103823.22;;;8.65;64.13
51289;BME280;37372;52.294;5.152;2023-02-12T14:33:08;103831.88;;;8.70;64.23
51289;BME280;37372;52.294;5.152;2023-02-12T14:35:37;103831.72;;;8.52;63.91
51289;BME280;37372;52.294;5.152;2023-02-12T14:41:23;103832.16;;;8.57;64.61
51289;BME280;37372;52.294;5.152;2023-02-12T14:46:52;103822.66;;;8.71;63.68
51289;BME280;37372;52.294;5.152;2023-02-12T14:49:22;103819.03;;;8.61;64.78
51289;BME280;37372;52.294;5.152;2023-02-12T14:57:11;103831.72;;;8.43;66.63
51289;BME280;37372;52.294;5.152;2023-02-12T14:59:44;103831.44;;;8.46;66.33
51289;BME280;37372;52.294;5.152;2023-02-12T15:02:33;103836.31;;;8.42;65.81
51289;BME280;37372;52.294;5.152;2023-02-12T15:05:25;103831.88;;;8.51;66.05
51289;BME280;37372;52.294;5.152;2023-02-12T15:07:58;103831.88;;;8.51;66.10
51289;BME280;37372;52.294;5.152;2023-02-12T15:10:29;103824.38;;;8.43;65.99
51289;BME280;37372;52.294;5.152;2023-02-12T15:13:00;103832.56;;;8.33;66.87
51289;BME280;37372;52.294;5.152;2023-02-12T15:15:51;103824.50;;;8.32;67.11
51289;BME280;37372;52.294;5.152;2023-02-12T15:21:22;103823.03;;;8.18;67.54
51289;BME280;37372;52.294;5.152;2023-02-12T15:26:28;103822.31;;;8.26;67.26
51289;BME280;37372;52.294;5.152;2023-02-12T15:28:54;103822.44;;;8.14;68.18